sensor_id;sensor_type;location;lat;lon;timestamp;P1;durP1;ratioP1;P2;durP2;ratioP2
928;SDS011;451;47.988;7.842;2022-07-29T00:08:45;10.83;;;9.20;;
928;SDS011;451;47.988;7.842;2022-07-29T00:17:47;9.10;;;8.20;;
928;SDS011;451;47.988;7.842;2022-07-29T00:26:48;9.50;;;8.57;;
928;SDS011;451;47.988;7.842;2022-07-29T00:35:51;10.50;;;9.40;;
928;SDS011;451;47.988;7.842;2022-07-29T00:44:53;9.87;;;8.97;;
928;SDS011;451;47.988;7.842;2022-07-29T00:53:54;11.23;;;8.17;;
928;SDS011;451;47.988;7.842;2022-07-29T01:02:57;10.30;;;9.30;;
928;SDS011;451;47.988;7.842;2022-07-29T01:11:59;10.77;;;8.63;;
928;SDS011;451;47.988;7.842;2022-07-29T01:30:25;10.90;;;9.20;;
928;SDS011;451;47.988;7.842;2022-07-29T01:39:32;10.50;;;9.00;;
928;SDS011;451;47.988;7.842;2022-07-29T01:48:39;12.00;;;9.70;;
928;SDS011;451;47.988;7.842;2022-07-29T01:57:45;10.10;;;9.00;;
928;SDS011;451;47.988;7.842;2022-07-29T02:06:50;11.17;;;9.67;;
928;SDS011;451;47.988;7.842;2022-07-29T02:15:54;11.70;;;10.00;;
928;SDS011;451;47.988;7.842;2022-07-29T02:24:58;9.50;;;8.60;;
928;SDS011;451;47.988;7.842;2022-07-29T02:34:02;10.17;;;9.27;;
928;SDS011;451;47.988;7.842;2022-07-29T02:43:06;10.60;;;9.50;;
928;SDS011;451;47.988;7.842;2022-07-29T02:52:21;14.43;;;9.90;;
928;SDS011;451;47.988;7.842;2022-07-29T03:01:40;10.83;;;9.70;;
928;SDS011;451;47.988;7.842;2022-07-29T03:10:44;10.20;;;9.10;;
928;SDS011;451;47.988;7.842;2022-07-29T03:19:52;11.10;;;9.90;;
928;SDS011;451;47.988;7.842;2022-07-29T03:28:55;11.50;;;10.27;;
928;SDS011;451;47.988;7.842;2022-07-29T03:37:57;13.37;;;10.60;;
928;SDS011;451;47.988;7.842;2022-07-29T03:46:59;15.10;;;10.70;;
928;SDS011;451;47.988;7.842;2022-07-29T03:56:03;10.80;;;9.70;;
928;SDS011;451;47.988;7.842;2022-07-29T04:05:11;10.70;;;9.50;;
928;SDS011;451;47.988;7.842;2022-07-29T04:14:14;12.10;;;10.13;;
928;SDS011;451;47.988;7.842;2022-07-29T04:23:16;10.43;;;9.30;;
928;SDS011;451;47.988;7.842;2022-07-29T04:32:18;14.00;;;9.10;;
928;SDS011;451;47.988;7.842;2022-07-29T04:41:19;10.93;;;9.83;;
928;SDS011;451;47.988;7.842;2022-07-29T04:50:21;10.40;;;9.40;;
928;SDS011;451;47.988;7.842;2022-07-29T04:59:24;11.00;;;10.00;;
928;SDS011;451;47.988;7.842;2022-07-29T05:08:26;9.87;;;8.87;;
928;SDS011;451;47.988;7.842;2022-07-29T05:17:28;11.53;;;10.43;;
928;SDS011;451;47.988;7.842;2022-07-29T05:26:29;10.13;;;9.13;;
928;SDS011;451;47.988;7.842;2022-07-29T05:35:31;10.07;;;8.93;;
928;SDS011;451;47.988;7.842;2022-07-29T05:44:35;18.13;;;14.10;;
928;SDS011;451;47.988;7.842;2022-07-29T05:53:38;9.63;;;8.80;;
928;SDS011;451;47.988;7.842;2022-07-29T06:02:39;9.40;;;8.50;;
928;SDS011;451;47.988;7.842;2022-07-29T06:11:41;9.40;;;8.50;;
928;SDS011;451;47.988;7.842;2022-07-29T06:20:43;8.90;;;8.10;;
928;SDS011;451;47.988;7.842;2022-07-29T06:29:44;10.13;;;8.60;;
928;SDS011;451;47.988;7.842;2022-07-29T06:38:46;9.20;;;8.13;;
928;SDS011;451;47.988;7.842;2022-07-29T06:47:48;8.70;;;7.90;;
928;SDS011;451;47.988;7.842;2022-07-29T06:56:51;9.30;;;8.33;;
928;SDS011;451;47.988;7.842;2022-07-29T07:05:53;10.40;;;9.50;;
928;SDS011;451;47.988;7.842;2022-07-29T07:14:55;11.40;;;8.37;;
928;SDS011;451;47.988;7.842;2022-07-29T07:23:57;10.40;;;7.40;;
928;SDS011;451;47.988;7.842;2022-07-29T07:32:59;9.43;;;8.43;;
928;SDS011;451;47.988;7.842;2022-07-29T07:42:01;8.57;;;7.77;;
928;SDS011;451;47.988;7.842;2022-07-29T07:51:03;8.70;;;7.80;;
928;SDS011;451;47.988;7.842;2022-07-29T08:00:06;11.97;;;8.00;;
928;SDS011;451;47.988;7.842;2022-07-29T08:09:13;7.63;;;6.87;;
928;SDS011;451;47.988;7.842;2022-07-29T08:18:15;8.67;;;7.77;;
928;SDS011;451;47.988;7.842;2022-07-29T08:27:16;7.97;;;7.17;;
928;SDS011;451;47.988;7.842;2022-07-29T08:36:19;8.30;;;7.57;;
928;SDS011;451;47.988;7.842;2022-07-29T08:45:22;9.13;;;6.67;;
928;SDS011;451;47.988;7.842;2022-07-29T08:54:24;7.50;;;6.27;;
928;SDS011;451;47.988;7.842;2022-07-29T09:03:31;6.77;;;6.17;;
928;SDS011;451;47.988;7.842;2022-07-29T09:12:35;7.60;;;5.77;;
928;SDS011;451;47.988;7.842;2022-07-29T09:21:40;6.10;;;5.50;;
928;SDS011;451;47.988;7.842;2022-07-29T09:31:00;7.57;;;4.93;;
928;SDS011;451;47.988;7.842;2022-07-29T09:40:10;5.47;;;4.93;;
928;SDS011;451;47.988;7.842;2022-07-29T09:49:13;6.33;;;5.20;;
928;SDS011;451;47.988;7.842;2022-07-29T09:58:17;7.23;;;5.73;;
928;SDS011;451;47.988;7.842;2022-07-29T10:07:20;5.70;;;5.20;;
928;SDS011;451;47.988;7.842;2022-07-29T10:16:22;6.03;;;5.43;;
928;SDS011;451;47.988;7.842;2022-07-29T10:25:25;6.90;;;6.30;;
928;SDS011;451;47.988;7.842;2022-07-29T10:44:21;9.00;;;5.77;;
928;SDS011;451;47.988;7.842;2022-07-29T10:53:25;6.63;;;5.87;;
928;SDS011;451;47.988;7.842;2022-07-29T11:02:52;6.20;;;5.60;;
928;SDS011;451;47.988;7.842;2022-07-29T11:11:57;6.93;;;6.23;;
928;SDS011;451;47.988;7.842;2022-07-29T11:20:58;7.63;;;5.33;;
928;SDS011;451;47.988;7.842;2022-07-29T11:30:01;5.87;;;5.27;;
928;SDS011;451;47.988;7.842;2022-07-29T11:39:24;6.77;;;6.17;;
928;SDS011;451;47.988;7.842;2022-07-29T11:48:26;7.23;;;6.50;;
928;SDS011;451;47.988;7.842;2022-07-29T11:57:28;6.75;;;6.15;;
928;SDS011;451;47.988;7.842;2022-07-29T12:06:31;7.23;;;6.53;;
928;SDS011;451;47.988;7.842;2022-07-29T12:15:33;6.73;;;6.13;;
928;SDS011;451;47.988;7.842;2022-07-29T12:24:44;6.40;;;5.80;;
928;SDS011;451;47.988;7.842;2022-07-29T12:33:51;7.35;;;6.50;;
928;SDS011;451;47.988;7.842;2022-07-29T12:43:08;6.60;;;6.00;;
928;SDS011;451;47.988;7.842;2022-07-29T13:01:36;6.20;;;5.60;;
928;SDS011;451;47.988;7.842;2022-07-29T13:10:38;8.70;;;6.30;;
928;SDS011;451;47.988;7.842;2022-07-29T13:19:44;6.10;;;5.50;;
928;SDS011;451;47.988;7.842;2022-07-29T13:28:48;7.90;;;5.10;;
928;SDS011;451;47.988;7.842;2022-07-29T13:37:50;5.57;;;5.10;;
928;SDS011;451;47.988;7.842;2022-07-29T13:46:54;5.00;;;4.50;;
928;SDS011;451;47.988;7.842;2022-07-29T13:55:57;4.90;;;4.50;;
928;SDS011;451;47.988;7.842;2022-07-29T14:04:58;7.73;;;4.80;;
928;SDS011;451;47.988;7.842;2022-07-29T14:14:00;6.03;;;5.10;;
928;SDS011;451;47.988;7.842;2022-07-29T14:23:02;5.33;;;4.83;;
928;SDS011;451;47.988;7.842;2022-07-29T14:32:04;6.10;;;4.90;;
928;SDS011;451;47.988;7.842;2022-07-29T14:41:07;5.07;;;4.27;;
928;SDS011;451;47.988;7.842;2022-07-29T14:50:09;5.40;;;5.00;;
928;SDS011;451;47.988;7.842;2022-07-29T14:59:11;4.20;;;3.83;;
928;SDS011;451;47.988;7.842;2022-07-29T15:08:13;5.17;;;3.83;;
928;SDS011;451;47.988;7.842;2022-07-29T15:17:14;3.70;;;3.40;;
928;SDS011;451;47.988;7.842;2022-07-29T15:26:16;4.37;;;3.97;;
928;SDS011;451;47.988;7.842;2022-07-29T15:35:19;3.60;;;2.93;;
928;SDS011;451;47.988;7.842;2022-07-29T15:44:20;5.83;;;3.90;;
928;SDS011;451;47.988;7.842;2022-07-29T15:53:22;4.27;;;3.30;;
928;SDS011;451;47.988;7.842;2022-07-29T16:02:24;4.07;;;3.67;;
928;SDS011;451;47.988;7.842;2022-07-29T16:11:26;6.07;;;3.30;;
928;SDS011;451;47.988;7.842;2022-07-29T16:20:27;4.10;;;3.10;;
928;SDS011;451;47.988;7.842;2022-07-29T16:29:29;4.57;;;2.90;;
928;SDS011;451;47.988;7.842;2022-07-29T16:38:31;4.23;;;3.50;;
928;SDS011;451;47.988;7.842;2022-07-29T16:47:33;3.67;;;3.37;;
928;SDS011;451;47.988;7.842;2022-07-29T16:56:35;3.77;;;3.47;;
928;SDS011;451;47.988;7.842;2022-07-29T17:05:37;3.60;;;3.00;;
928;SDS011;451;47.988;7.842;2022-07-29T17:14:40;3.50;;;3.20;;
928;SDS011;451;47.988;7.842;2022-07-29T17:23:42;4.13;;;3.73;;
928;SDS011;451;47.988;7.842;2022-07-29T17:32:44;4.30;;;3.00;;
928;SDS011;451;47.988;7.842;2022-07-29T17:41:46;2.90;;;2.70;;
928;SDS011;451;47.988;7.842;2022-07-29T17:50:47;4.73;;;2.87;;
928;SDS011;451;47.988;7.842;2022-07-29T17:59:49;3.60;;;3.23;;
928;SDS011;451;47.988;7.842;2022-07-29T18:08:51;3.10;;;2.80;;
928;SDS011;451;47.988;7.842;2022-07-29T18:17:53;4.47;;;2.90;;
928;SDS011;451;47.988;7.842;2022-07-29T18:26:55;2.90;;;2.60;;
928;SDS011;451;47.988;7.842;2022-07-29T18:35:57;5.97;;;3.17;;
928;SDS011;451;47.988;7.842;2022-07-29T18:44:58;2.50;;;2.30;;
928;SDS011;451;47.988;7.842;2022-07-29T18:54:00;5.50;;;3.63;;
928;SDS011;451;47.988;7.842;2022-07-29T19:03:02;3.60;;;3.30;;
928;SDS011;451;47.988;7.842;2022-07-29T19:12:04;4.97;;;3.17;;
928;SDS011;451;47.988;7.842;2022-07-29T19:21:06;5.07;;;3.73;;
928;SDS011;451;47.988;7.842;2022-07-29T19:30:08;3.93;;;3.60;;
928;SDS011;451;47.988;7.842;2022-07-29T19:39:10;5.23;;;3.50;;
928;SDS011;451;47.988;7.842;2022-07-29T19:48:11;5.20;;;4.57;;
928;SDS011;451;47.988;7.842;2022-07-29T19:57:13;4.10;;;3.70;;
928;SDS011;451;47.988;7.842;2022-07-29T20:06:15;4.20;;;3.80;;
928;SDS011;451;47.988;7.842;2022-07-29T20:15:18;5.20;;;4.30;;
928;SDS011;451;47.988;7.842;2022-07-29T20:24:20;4.63;;;4.20;;
928;SDS011;451;47.988;7.842;2022-07-29T20:33:22;4.63;;;4.13;;
928;SDS011;451;47.988;7.842;2022-07-29T20:42:23;4.93;;;4.47;;
928;SDS011;451;47.988;7.842;2022-07-29T20:51:25;4.87;;;4.40;;
928;SDS011;451;47.988;7.842;2022-07-29T21:00:27;6.43;;;5.07;;
928;SDS011;451;47.988;7.842;2022-07-29T21:09:29;6.37;;;4.73;;
928;SDS011;451;47.988;7.842;2022-07-29T21:18:30;5.20;;;4.70;;
928;SDS011;451;47.988;7.842;2022-07-29T21:27:37;4.83;;;4.20;;
928;SDS011;451;47.988;7.842;2022-07-29T21:36:57;5.57;;;5.07;;
928;SDS011;451;47.988;7.842;2022-07-29T21:45:59;5.93;;;4.53;;
928;SDS011;451;47.988;7.842;2022-07-29T21:55:01;5.63;;;4.57;;
928;SDS011;451;47.988;7.842;2022-07-29T22:04:02;6.60;;;4.70;;
928;SDS011;451;47.988;7.842;2022-07-29T22:13:05;6.23;;;5.00;;
928;SDS011;451;47.988;7.842;2022-07-29T22:22:06;4.90;;;4.40;;
928;SDS011;451;47.988;7.842;2022-07-29T22:31:08;12.57;;;7.33;;
928;SDS011;451;47.988;7.842;2022-07-29T22:40:10;5.83;;;4.03;;
928;SDS011;451;47.988;7.842;2022-07-29T22:49:12;5.53;;;5.03;;
928;SDS011;451;47.988;7.842;2022-07-29T22:58:13;5.00;;;4.60;;
928;SDS011;451;47.988;7.842;2022-07-29T23:07:15;4.97;;;4.53;;
928;SDS011;451;47.988;7.842;2022-07-29T23:16:17;5.70;;;4.13;;
928;SDS011;451;47.988;7.842;2022-07-29T23:25:19;6.23;;;4.70;;
928;SDS011;451;47.988;7.842;2022-07-29T23:34:21;6.13;;;3.90;;
928;SDS011;451;47.988;7.842;2022-07-29T23:43:23;4.87;;;4.27;;
928;SDS011;451;47.988;7.842;2022-07-29T23:52:25;5.20;;;4.70;;
